createdAt,value
2018-07-22T00:01:37.877Z,17.50
2018-07-22T00:04:07.330Z,17.50
2018-07-22T00:06:36.492Z,17.50
2018-07-22T00:09:08.746Z,17.50
2018-07-22T00:11:38.261Z,17.50
2018-07-22T00:14:07.821Z,17.50
2018-07-22T00:16:36.543Z,17.40
2018-07-22T00:19:05.387Z,17.50
2018-07-22T00:21:34.776Z,17.50
2018-07-22T00:26:32.542Z,17.40
2018-07-22T00:29:01.132Z,17.50
2018-07-22T00:31:30.484Z,17.50
2018-07-22T00:33:59.831Z,17.40
2018-07-22T00:36:28.548Z,17.40
2018-07-22T00:38:57.117Z,17.40
2018-07-22T00:41:27.180Z,17.30
2018-07-22T00:43:56.442Z,17.30
2018-07-22T00:46:26.282Z,17.30
2018-07-22T00:48:54.872Z,17.30
2018-07-22T00:51:24.078Z,17.30
2018-07-22T00:53:53.162Z,17.30
2018-07-22T00:56:21.859Z,17.30
2018-07-22T00:58:50.359Z,17.30
2018-07-22T01:01:19.516Z,17.30
2018-07-22T01:03:49.186Z,17.30
2018-07-22T01:06:17.794Z,17.30
2018-07-22T01:08:46.447Z,17.30
2018-07-22T01:11:15.873Z,17.20
2018-07-22T01:13:45.189Z,17.20
2018-07-22T01:16:14.466Z,17.20
2018-07-22T01:18:43.141Z,17.20
2018-07-22T01:21:11.858Z,17.10
2018-07-22T01:23:41.079Z,17.10
2018-07-22T01:26:10.230Z,17.10
2018-07-22T01:28:38.829Z,17.10
2018-07-22T01:31:07.565Z,17.20
2018-07-22T01:33:36.953Z,17.10
2018-07-22T01:36:06.236Z,17.10
2018-07-22T01:38:34.777Z,17.10
2018-07-22T01:41:03.443Z,17.10
2018-07-22T01:43:32.635Z,17.10
2018-07-22T01:46:02.010Z,17.10
2018-07-22T01:48:30.785Z,17.00
2018-07-22T01:50:59.613Z,17.10
2018-07-22T01:53:29.091Z,17.10
2018-07-22T01:55:58.437Z,17.10
2018-07-22T01:58:27.041Z,17.00
2018-07-22T02:00:55.676Z,17.10
2018-07-22T02:03:24.925Z,17.00
2018-07-22T02:05:54.090Z,17.10
2018-07-22T02:08:22.677Z,17.10
2018-07-22T02:10:51.327Z,17.10
2018-07-22T02:13:20.591Z,17.10
2018-07-22T02:15:49.751Z,17.10
2018-07-22T02:18:18.495Z,17.10
2018-07-22T02:20:47.116Z,17.00
2018-07-22T02:23:16.467Z,17.00
2018-07-22T02:25:45.781Z,17.10
2018-07-22T02:28:14.359Z,17.20
2018-07-22T02:30:42.946Z,17.20
2018-07-22T02:33:11.757Z,17.20
2018-07-22T02:35:41.381Z,17.20
2018-07-22T02:38:10.375Z,17.20
2018-07-22T02:40:39.169Z,17.10
2018-07-22T02:43:07.901Z,17.10
2018-07-22T02:48:06.538Z,17.00
2018-07-22T02:50:35.054Z,16.90
2018-07-22T02:53:03.783Z,16.90
2018-07-22T02:55:33.073Z,16.90
2018-07-22T02:58:02.657Z,16.90
2018-07-22T03:00:31.273Z,16.90
2018-07-22T03:02:59.846Z,16.90
2018-07-22T03:05:29.244Z,16.90
2018-07-22T03:07:58.412Z,16.90
2018-07-22T03:10:26.943Z,16.90
2018-07-22T03:12:55.633Z,16.90
2018-07-22T03:15:24.758Z,16.90
2018-07-22T03:17:54.009Z,16.90
2018-07-22T03:20:22.627Z,16.90
2018-07-22T03:22:51.395Z,16.80
2018-07-22T03:25:20.877Z,16.80
2018-07-22T03:27:50.133Z,16.80
2018-07-22T03:30:18.699Z,16.90
2018-07-22T03:32:47.382Z,16.90
2018-07-22T03:35:16.798Z,16.90
2018-07-22T03:37:46.026Z,16.90
2018-07-22T03:40:14.771Z,16.90
2018-07-22T03:42:43.328Z,17.00
2018-07-22T03:45:11.804Z,17.00
2018-07-22T03:47:41.151Z,17.00
2018-07-22T03:50:09.959Z,16.90
2018-07-22T03:52:38.468Z,16.90
2018-07-22T03:55:07.156Z,17.00
2018-07-22T03:57:36.362Z,17.00
2018-07-22T04:00:06.107Z,17.00
2018-07-22T04:02:34.682Z,17.00
2018-07-22T04:05:03.385Z,17.00
2018-07-22T04:07:32.800Z,17.00
2018-07-22T04:10:02.190Z,17.00
2018-07-22T04:12:30.942Z,17.00
2018-07-22T04:14:59.605Z,17.10
2018-07-22T04:17:29.068Z,17.10
2018-07-22T04:19:58.282Z,17.10
2018-07-22T04:22:26.970Z,17.10
2018-07-22T04:24:55.782Z,17.10
2018-07-22T04:27:25.066Z,17.20
2018-07-22T04:29:54.318Z,17.20
2018-07-22T04:32:22.918Z,17.20
2018-07-22T04:34:51.340Z,17.20
2018-07-22T04:37:20.720Z,17.20
2018-07-22T04:39:50.080Z,17.20
2018-07-22T04:42:19.494Z,17.30
2018-07-22T04:44:48.123Z,17.40
2018-07-22T04:47:17.366Z,17.40
2018-07-22T04:49:46.596Z,17.40
2018-07-22T04:52:16.763Z,17.50
2018-07-22T04:54:45.524Z,17.50
2018-07-22T04:57:14.927Z,17.60
2018-07-22T04:59:44.311Z,17.60
2018-07-22T05:02:13.649Z,17.70
2018-07-22T05:04:42.325Z,17.70
2018-07-22T05:07:11.219Z,17.80
2018-07-22T05:09:40.484Z,17.80
2018-07-22T05:12:09.459Z,17.90
2018-07-22T05:14:38.266Z,17.90
2018-07-22T05:17:06.803Z,17.90
2018-07-22T05:19:36.336Z,17.90
2018-07-22T05:22:05.748Z,17.90
2018-07-22T05:24:34.612Z,17.90
2018-07-22T05:27:03.088Z,18.00
2018-07-22T05:29:32.526Z,18.10
2018-07-22T05:32:02.067Z,18.10
2018-07-22T05:34:30.672Z,18.20
2018-07-22T05:36:59.198Z,18.20
2018-07-22T05:39:28.614Z,18.30
2018-07-22T05:41:58.115Z,18.30
2018-07-22T05:44:26.712Z,18.40
2018-07-22T05:46:56.062Z,18.50
2018-07-22T05:49:26.363Z,18.60
2018-07-22T05:51:55.663Z,18.60
2018-07-22T05:54:24.448Z,18.70
2018-07-22T05:56:52.898Z,18.80
2018-07-22T05:59:22.295Z,18.90
2018-07-22T06:01:51.561Z,18.90
2018-07-22T06:04:20.239Z,19.10
2018-07-22T06:06:48.996Z,19.20
2018-07-22T06:09:21.238Z,19.20
2018-07-22T06:11:50.513Z,19.20
2018-07-22T06:14:19.199Z,19.30
2018-07-22T06:16:47.767Z,19.40
2018-07-22T06:19:17.220Z,19.40
2018-07-22T06:21:46.438Z,19.40
2018-07-22T06:24:15.008Z,19.50
2018-07-22T06:26:43.836Z,19.60
2018-07-22T06:29:12.401Z,19.70
2018-07-22T06:31:41.678Z,19.80
2018-07-22T06:34:10.959Z,19.90
2018-07-22T06:36:39.682Z,20.10
2018-07-22T06:39:13.122Z,20.30
2018-07-22T06:41:44.106Z,20.40
2018-07-22T06:44:13.588Z,20.60
2018-07-22T06:46:42.449Z,20.80
2018-07-22T06:49:11.120Z,20.90
2018-07-22T06:51:40.573Z,21.00
2018-07-22T06:54:09.640Z,21.10
2018-07-22T06:56:38.382Z,21.10
2018-07-22T06:59:07.066Z,21.30
2018-07-22T07:01:36.546Z,21.20
2018-07-22T07:04:05.946Z,21.20
2018-07-22T07:06:34.648Z,21.50
2018-07-22T07:09:05.560Z,21.80
2018-07-22T07:11:36.000Z,22.10
2018-07-22T07:14:05.861Z,22.10
2018-07-22T07:16:36.461Z,22.40
2018-07-22T07:19:06.237Z,22.30
2018-07-22T07:25:38.558Z,22.50
2018-07-22T07:28:07.948Z,22.70
2018-07-22T07:30:36.616Z,22.60
2018-07-22T07:33:08.264Z,22.60
2018-07-22T07:35:37.711Z,22.50
2018-07-22T07:38:07.611Z,22.80
2018-07-22T07:40:37.028Z,23.00
2018-07-22T07:43:06.071Z,23.20
2018-07-22T07:45:34.804Z,23.50
2018-07-22T07:48:03.194Z,23.50
2018-07-22T08:00:16.736Z,23.70
2018-07-22T08:02:45.488Z,23.60
2018-07-22T08:05:15.668Z,23.70
2018-07-22T08:07:44.648Z,24.00
2018-07-22T08:10:14.094Z,23.90
2018-07-22T08:12:44.300Z,23.80
2018-07-22T08:15:14.481Z,23.60
2018-07-22T08:17:43.519Z,24.00
2018-07-22T08:20:13.004Z,24.40
2018-07-22T08:22:42.134Z,24.50
2018-07-22T08:25:10.834Z,24.50
2018-07-22T08:27:40.400Z,24.70
2018-07-22T08:30:09.946Z,24.60
2018-07-22T08:32:38.770Z,24.60
2018-07-22T08:35:07.324Z,24.60
2018-07-22T08:37:37.328Z,24.50
2018-07-22T08:40:07.144Z,24.70
2018-07-22T08:42:35.897Z,25.00
2018-07-22T08:45:05.546Z,25.00
2018-07-22T08:47:33.575Z,25.30
2018-07-22T08:50:02.416Z,25.70
2018-07-22T08:52:31.060Z,25.50
2018-07-22T08:55:00.130Z,25.30
2018-07-22T08:57:29.516Z,25.10
2018-07-22T08:59:59.070Z,24.90
2018-07-22T09:02:27.902Z,24.90
2018-07-22T09:04:56.702Z,25.00
2018-07-22T09:07:26.250Z,24.90
2018-07-22T09:12:23.588Z,24.40
2018-07-22T09:14:52.462Z,24.10
2018-07-22T09:17:21.978Z,24.20
2018-07-22T09:19:51.138Z,24.30
2018-07-22T09:22:20.407Z,24.20
2018-07-22T09:24:51.054Z,24.20
2018-07-22T09:27:19.796Z,24.10
2018-07-22T09:29:49.541Z,24.20
2018-07-22T09:32:18.530Z,24.30
2018-07-22T09:34:47.936Z,24.60
2018-07-22T09:37:16.642Z,24.70
2018-07-22T09:39:45.506Z,24.70
2018-07-22T09:42:14.352Z,24.70
2018-07-22T09:44:43.119Z,24.50
2018-07-22T09:47:13.375Z,24.30
2018-07-22T09:49:47.256Z,24.20
2018-07-22T09:52:17.240Z,24.20
2018-07-22T09:54:47.319Z,24.40
2018-07-22T09:57:16.803Z,24.80
2018-07-22T09:59:46.362Z,25.50
2018-07-22T10:02:15.295Z,25.90
2018-07-22T10:04:44.227Z,25.80
2018-07-22T10:07:13.629Z,25.80
2018-07-22T10:09:43.470Z,25.70
2018-07-22T10:12:11.494Z,25.50
2018-07-22T10:14:40.385Z,25.40
2018-07-22T10:17:09.618Z,25.20
2018-07-22T10:19:38.498Z,24.90
2018-07-22T10:22:07.850Z,24.80
2018-07-22T10:24:38.074Z,25.00
2018-07-22T10:27:06.964Z,24.90
2018-07-22T10:29:36.507Z,25.20
2018-07-22T10:32:06.282Z,25.30
2018-07-22T10:34:34.282Z,25.40
2018-07-22T10:37:03.033Z,26.20
2018-07-22T10:39:31.918Z,26.80
2018-07-22T10:42:01.347Z,26.90
2018-07-22T10:44:30.006Z,26.60
2018-07-22T10:46:58.060Z,26.00
2018-07-22T10:49:28.954Z,25.30
2018-07-22T10:51:58.355Z,24.90
2018-07-22T10:54:27.297Z,24.50
2018-07-22T10:56:56.109Z,24.30
2018-07-22T10:59:25.876Z,24.40
2018-07-22T11:01:55.174Z,24.40
2018-07-22T11:04:23.983Z,24.50
2018-07-22T11:06:52.909Z,24.60
2018-07-22T11:09:22.276Z,24.70
2018-07-22T11:11:51.032Z,24.70
2018-07-22T11:14:21.159Z,24.70
2018-07-22T11:16:49.973Z,24.80
2018-07-22T11:19:19.518Z,24.80
2018-07-22T11:21:48.886Z,24.80
2018-07-22T11:24:18.080Z,25.00
2018-07-22T11:26:48.434Z,25.30
2018-07-22T11:29:16.824Z,25.80
2018-07-22T11:31:45.586Z,26.20
2018-07-22T11:34:15.029Z,26.60
2018-07-22T11:36:43.825Z,26.90
2018-07-22T11:39:12.829Z,27.30
2018-07-22T11:41:43.155Z,27.30
2018-07-22T11:44:11.188Z,27.50
2018-07-22T11:46:40.395Z,27.20
2018-07-22T11:49:09.236Z,27.10
2018-07-22T11:51:39.339Z,27.40
2018-07-22T11:54:08.289Z,27.60
2018-07-22T11:56:36.281Z,27.50
2018-07-22T11:59:04.985Z,27.50
2018-07-22T12:01:36.055Z,27.40
2018-07-22T12:04:05.140Z,27.20
2018-07-22T12:06:33.922Z,26.80
2018-07-22T12:09:04.282Z,26.70
2018-07-22T12:11:34.162Z,26.60
2018-07-22T12:14:03.801Z,26.40
2018-07-22T12:16:32.461Z,26.50
2018-07-22T12:19:02.602Z,26.60
2018-07-22T12:21:32.576Z,26.70
2018-07-22T12:24:02.108Z,26.40
2018-07-22T12:26:31.947Z,26.10
2018-07-22T12:29:00.876Z,26.30
2018-07-22T12:31:29.727Z,27.00
2018-07-22T12:33:59.389Z,27.40
2018-07-22T12:36:28.205Z,27.10
2018-07-22T12:38:57.247Z,26.70
2018-07-22T12:41:26.912Z,26.20
2018-07-22T12:43:56.232Z,26.00
2018-07-22T12:46:25.464Z,26.00
2018-07-22T12:49:01.917Z,25.80
2018-07-22T12:51:36.100Z,25.70
2018-07-22T12:54:11.031Z,25.70
2018-07-22T12:56:47.639Z,25.40
2018-07-22T12:59:23.504Z,25.20
2018-07-22T13:01:59.209Z,25.20
2018-07-22T13:04:36.460Z,25.70
2018-07-22T13:07:11.993Z,26.30
2018-07-22T13:09:47.084Z,26.80
2018-07-22T13:12:22.076Z,27.10
2018-07-22T13:17:34.303Z,26.70
2018-07-22T13:20:04.014Z,26.30
2018-07-22T13:22:31.995Z,26.10
2018-07-22T13:25:01.342Z,26.20
2018-07-22T13:27:30.142Z,26.30
2018-07-22T13:29:59.541Z,26.30
2018-07-22T13:32:28.534Z,26.30
2018-07-22T13:34:57.395Z,26.30
2018-07-22T13:37:26.716Z,26.50
2018-07-22T13:39:55.407Z,26.70
2018-07-22T13:42:24.279Z,26.80
2018-07-22T13:44:53.112Z,26.60
2018-07-22T13:47:23.946Z,26.20
2018-07-22T13:49:52.873Z,26.10
2018-07-22T13:52:21.751Z,26.20
2018-07-22T13:54:51.251Z,26.60
2018-07-22T13:59:50.974Z,27.30
2018-07-22T14:02:19.397Z,27.50
2018-07-22T14:04:49.050Z,27.20
2018-07-22T14:07:18.050Z,27.40
2018-07-22T14:09:49.048Z,27.50
2018-07-22T14:12:17.034Z,27.50
2018-07-22T14:14:47.680Z,27.30
2018-07-22T14:17:16.391Z,27.40
2018-07-22T14:19:45.220Z,27.30
2018-07-22T14:22:20.745Z,26.90
2018-07-22T14:24:56.454Z,26.50
2018-07-22T14:27:31.850Z,26.30
2018-07-22T14:30:06.672Z,26.40
2018-07-22T14:32:42.578Z,26.40
2018-07-22T14:35:16.649Z,26.30
2018-07-22T14:37:45.661Z,26.20
2018-07-22T14:40:15.554Z,26.20
2018-07-22T14:42:46.523Z,26.30
2018-07-22T14:45:15.225Z,26.20
2018-07-22T14:47:44.376Z,26.00
2018-07-22T14:50:14.477Z,26.00
2018-07-22T14:52:43.337Z,26.20
2018-07-22T14:55:12.108Z,26.10
2018-07-22T14:57:40.825Z,25.70
2018-07-22T15:00:09.543Z,25.40
2018-07-22T15:02:38.267Z,25.30
2018-07-22T15:05:06.553Z,25.40
2018-07-22T15:07:39.319Z,25.70
2018-07-22T15:10:09.131Z,25.90
2018-07-22T15:12:39.202Z,25.90
2018-07-22T15:15:12.531Z,25.80
2018-07-22T15:17:42.443Z,25.60
2018-07-22T15:20:12.065Z,25.40
2018-07-22T15:22:40.973Z,25.20
2018-07-22T15:25:11.127Z,25.00
2018-07-22T15:27:39.987Z,24.90
2018-07-22T15:30:08.902Z,25.00
2018-07-22T15:32:37.782Z,25.20
2018-07-22T15:35:06.895Z,25.30
2018-07-22T15:37:35.773Z,25.50
2018-07-22T15:40:05.881Z,25.60
2018-07-22T15:42:34.607Z,25.60
2018-07-22T15:45:04.357Z,25.40
2018-07-22T15:47:33.831Z,25.10
2018-07-22T15:50:04.118Z,25.10
2018-07-22T15:52:32.976Z,25.10
2018-07-22T15:55:04.841Z,25.20
2018-07-22T15:57:36.052Z,25.30
2018-07-22T16:00:07.429Z,25.20
2018-07-22T16:02:36.199Z,25.00
2018-07-22T16:05:05.181Z,24.90
2018-07-22T16:07:35.209Z,24.80
2018-07-22T16:10:04.915Z,24.90
2018-07-22T16:12:33.851Z,24.90
2018-07-22T16:15:02.827Z,24.70
2018-07-22T16:17:32.364Z,24.60
2018-07-22T16:20:01.822Z,24.50
2018-07-22T16:22:30.930Z,24.50
2018-07-22T16:24:59.628Z,24.50
2018-07-22T16:27:29.117Z,24.40
2018-07-22T16:29:58.755Z,24.40
2018-07-22T16:32:27.587Z,24.30
2018-07-22T16:34:56.320Z,24.20
2018-07-22T16:37:25.650Z,24.20
2018-07-22T16:39:55.120Z,24.20
2018-07-22T16:42:24.195Z,24.20
2018-07-22T16:44:53.071Z,24.20
2018-07-22T16:47:22.451Z,24.30
2018-07-22T16:49:52.020Z,24.30
2018-07-22T16:52:21.097Z,24.20
2018-07-22T16:54:50.072Z,23.90
2018-07-22T16:57:19.709Z,23.60
2018-07-22T16:59:49.097Z,23.40
2018-07-22T17:02:17.989Z,23.30
2018-07-22T17:04:48.137Z,23.20
2018-07-22T17:07:17.620Z,23.00
2018-07-22T17:09:48.095Z,23.00
2018-07-22T17:12:17.004Z,23.10
2018-07-22T17:14:45.825Z,23.20
2018-07-22T17:17:15.271Z,23.30
2018-07-22T17:19:44.687Z,23.30
2018-07-22T17:22:14.461Z,23.40
2018-07-22T17:24:45.677Z,23.30
2018-07-22T17:27:15.325Z,23.30
2018-07-22T17:32:14.447Z,23.20
2018-07-22T17:34:43.268Z,23.20
2018-07-22T17:37:13.455Z,23.20
2018-07-22T17:39:43.776Z,23.20
2018-07-22T17:42:13.784Z,23.20
2018-07-22T17:44:42.588Z,23.10
2018-07-22T17:47:11.251Z,23.00
2018-07-22T17:49:40.757Z,22.90
2018-07-22T17:52:09.752Z,22.80
2018-07-22T17:54:38.605Z,22.70
2018-07-22T17:57:19.282Z,22.60
2018-07-22T17:59:49.784Z,22.50
2018-07-22T18:02:18.716Z,22.40
2018-07-22T18:04:47.539Z,22.30
2018-07-22T18:07:18.597Z,22.20
2018-07-22T18:09:48.266Z,22.10
2018-07-22T18:12:17.198Z,22.00
2018-07-22T18:14:47.526Z,21.90
2018-07-22T18:17:17.023Z,21.80
2018-07-22T18:19:46.727Z,21.70
2018-07-22T18:22:15.615Z,21.70
2018-07-22T18:24:44.959Z,21.50
2018-07-22T18:27:12.989Z,21.40
2018-07-22T18:29:42.616Z,21.30
2018-07-22T18:32:11.561Z,21.20
2018-07-22T18:34:40.408Z,21.10
2018-07-22T18:37:09.388Z,21.10
2018-07-22T18:39:39.028Z,21.00
2018-07-22T18:42:08.533Z,20.90
2018-07-22T18:44:37.381Z,20.90
2018-07-22T18:47:06.727Z,20.80
2018-07-22T18:49:36.495Z,20.70
2018-07-22T18:52:06.488Z,20.60
2018-07-22T18:54:35.387Z,20.60
2018-07-22T18:57:04.339Z,20.60
2018-07-22T18:59:34.294Z,20.50
2018-07-22T19:02:04.541Z,20.50
2018-07-22T19:04:33.401Z,20.50
2018-07-22T19:07:04.428Z,20.50
2018-07-22T19:09:33.256Z,20.50
2018-07-22T19:12:04.240Z,20.40
2018-07-22T19:14:34.442Z,20.30
2018-07-22T19:17:04.481Z,20.30
2018-07-22T19:19:34.005Z,20.20
2018-07-22T19:22:04.588Z,20.20
2018-07-22T19:24:33.423Z,20.10
2018-07-22T19:27:02.314Z,20.10
2018-07-22T19:29:32.013Z,20.10
2018-07-22T19:32:01.524Z,20.10
2018-07-22T19:34:31.090Z,20.00
2018-07-22T19:36:59.834Z,20.00
2018-07-22T19:39:29.263Z,19.90
2018-07-22T19:41:58.390Z,19.90
2018-07-22T19:44:27.160Z,19.80
2018-07-22T19:46:57.091Z,19.70
2018-07-22T19:49:26.688Z,19.70
2018-07-22T19:51:56.750Z,19.00
2018-07-22T19:54:25.484Z,19.60
2018-07-22T19:56:54.178Z,19.70
2018-07-22T19:59:25.251Z,19.70
2018-07-22T20:01:54.797Z,19.70
2018-07-22T20:04:24.592Z,19.80
2018-07-22T20:06:53.521Z,19.80
2018-07-22T20:09:24.048Z,19.80
2018-07-22T20:11:54.308Z,19.80
2018-07-22T20:14:23.080Z,19.80
2018-07-22T20:16:51.770Z,19.90
2018-07-22T20:19:21.457Z,20.00
2018-07-22T20:21:50.864Z,20.00
2018-07-22T20:24:19.856Z,20.10
2018-07-22T20:26:48.684Z,20.10
2018-07-22T20:29:18.107Z,20.10
2018-07-22T20:31:47.697Z,20.10
2018-07-22T20:34:17.544Z,20.10
2018-07-22T20:36:46.898Z,20.10
2018-07-22T20:39:17.482Z,20.10
2018-07-22T20:41:48.126Z,20.10
2018-07-22T20:44:17.370Z,20.10
2018-07-22T20:46:46.393Z,20.10
2018-07-22T20:49:15.788Z,20.00
2018-07-22T20:51:45.281Z,20.00
2018-07-22T20:54:14.730Z,20.00
2018-07-22T20:56:44.110Z,19.90
2018-07-22T20:59:13.048Z,19.80
2018-07-22T21:01:42.819Z,19.80
2018-07-22T21:04:12.090Z,19.70
2018-07-22T21:06:40.850Z,19.60
2018-07-22T21:09:09.796Z,19.60
2018-07-22T21:12:52.408Z,19.50
2018-07-22T21:15:22.103Z,19.40
2018-07-22T21:17:52.109Z,19.30
2018-07-22T21:20:21.629Z,19.20
2018-07-22T21:22:51.086Z,19.00
2018-07-22T21:25:20.680Z,18.90
2018-07-22T21:27:50.910Z,18.80
2018-07-22T21:30:20.409Z,18.70
2018-07-22T21:32:49.087Z,18.70
2018-07-22T21:35:18.348Z,18.60
2018-07-22T21:37:48.074Z,18.60
2018-07-22T21:40:17.015Z,18.70
2018-07-22T21:42:48.519Z,18.60
2018-07-22T21:45:17.955Z,18.60
2018-07-22T21:47:48.393Z,18.50
2018-07-22T21:50:17.276Z,18.50
2018-07-22T21:52:46.247Z,18.40
2018-07-22T21:55:15.757Z,18.40
2018-07-22T21:57:45.103Z,18.40
2018-07-22T22:00:23.099Z,18.50
2018-07-22T22:02:51.275Z,18.50
2018-07-22T22:05:20.542Z,18.50
2018-07-22T22:07:50.017Z,18.50
2018-07-22T22:10:18.621Z,18.40
2018-07-22T22:12:48.252Z,18.40
2018-07-22T22:15:22.710Z,18.40
2018-07-22T22:17:52.819Z,18.40
2018-07-22T22:20:21.857Z,18.40
2018-07-22T22:22:51.472Z,18.40
2018-07-22T22:25:20.880Z,18.40
2018-07-22T22:27:50.264Z,18.30
2018-07-22T22:30:18.904Z,18.30
2018-07-22T22:32:47.873Z,18.20
2018-07-22T22:35:17.280Z,18.20
2018-07-22T22:37:46.768Z,18.20
2018-07-22T22:40:15.881Z,18.10
2018-07-22T22:42:45.492Z,18.10
2018-07-22T22:45:15.276Z,18.00
2018-07-22T22:47:44.822Z,18.00
2018-07-22T22:50:13.786Z,18.10
2018-07-22T22:52:42.572Z,18.20
2018-07-22T22:55:11.111Z,18.20
2018-07-22T22:57:47.008Z,18.10
2018-07-22T23:00:15.975Z,18.10
2018-07-22T23:02:44.572Z,18.00
2018-07-22T23:05:13.872Z,17.90
2018-07-22T23:07:43.219Z,17.80
2018-07-22T23:10:13.589Z,17.80
2018-07-22T23:12:42.273Z,17.70
2018-07-22T23:15:11.090Z,17.70
2018-07-22T23:17:40.558Z,17.70
2018-07-22T23:20:09.598Z,17.60
2018-07-22T23:22:38.482Z,17.50
2018-07-22T23:25:07.779Z,17.50
2018-07-22T23:27:37.726Z,17.50
2018-07-22T23:30:07.105Z,17.40
2018-07-22T23:32:35.816Z,17.30
2018-07-22T23:35:04.567Z,17.30
2018-07-22T23:37:34.106Z,17.20
2018-07-22T23:40:04.284Z,17.20
2018-07-22T23:42:39.908Z,17.10
2018-07-22T23:45:08.495Z,17.10
2018-07-22T23:47:37.930Z,17.10
2018-07-22T23:50:07.495Z,17.00
2018-07-22T23:52:37.776Z,17.00
2018-07-22T23:55:06.547Z,16.90
2018-07-22T23:57:36.280Z,16.90
